createdAt,value
2022-10-05T00:00:20.287Z,101222.85
2022-10-05T00:03:12.280Z,101215.55
2022-10-05T00:05:40.387Z,101209.56
2022-10-05T00:08:11.186Z,101214.52
2022-10-05T00:10:41.737Z,101224.59
2022-10-05T00:13:24.892Z,101224.56
2022-10-05T00:16:09.731Z,101217.52
2022-10-05T00:18:38.713Z,101217.91
2022-10-05T00:21:19.830Z,101213.29
2022-10-05T00:23:48.625Z,101210.09
2022-10-05T00:26:27.913Z,101202.49
2022-10-05T00:28:56.041Z,101199.22
2022-10-05T00:31:30.371Z,101189.84
2022-10-05T00:33:59.130Z,101184.26
2022-10-05T00:36:27.294Z,101186.62
2022-10-05T00:38:55.598Z,101190.94
2022-10-05T00:42:01.495Z,101194.52
2022-10-05T00:44:52.427Z,101198.27
2022-10-05T00:47:46.488Z,101209.05
2022-10-05T00:50:28.459Z,101213.75
2022-10-05T00:53:18.461Z,101192.58
2022-10-05T00:55:57.031Z,101204.41
2022-10-05T00:58:49.557Z,101207.20
2022-10-05T01:01:27.559Z,101207.95
2022-10-05T01:04:18.760Z,101206.23
2022-10-05T01:06:58.603Z,101202.35
2022-10-05T01:09:31.206Z,101197.71
2022-10-05T01:12:17.834Z,101204.23
2022-10-05T01:15:13.974Z,101200.48
2022-10-05T01:18:17.619Z,101201.45
2022-10-05T01:21:16.679Z,101203.30
2022-10-05T01:24:06.566Z,101186.85
2022-10-05T01:27:12.017Z,101210.08
2022-10-05T01:29:54.993Z,101210.90
2022-10-05T01:32:29.479Z,101203.13
2022-10-05T01:35:11.592Z,101201.10
2022-10-05T01:38:04.023Z,101196.42
2022-10-05T01:41:15.340Z,101193.59
2022-10-05T01:43:48.511Z,101188.41
2022-10-05T01:46:30.313Z,101176.31
2022-10-05T01:49:25.202Z,101194.83
2022-10-05T01:52:19.317Z,101206.03
2022-10-05T01:55:13.079Z,101207.39
2022-10-05T01:58:00.889Z,101209.08
2022-10-05T02:00:32.141Z,101217.88
2022-10-05T02:03:13.737Z,101219.27
2022-10-05T02:05:58.823Z,101210.60
2022-10-05T02:09:08.539Z,101205.86
2022-10-05T02:11:39.818Z,101202.98
2022-10-05T02:14:13.607Z,101204.63
2022-10-05T02:16:51.601Z,101198.48
2022-10-05T02:19:48.938Z,101191.94
2022-10-05T02:22:24.115Z,101166.86
2022-10-05T02:24:57.756Z,101169.27
2022-10-05T02:27:34.654Z,101159.40
2022-10-05T02:30:07.351Z,101148.13
2022-10-05T02:32:47.845Z,101156.52
2022-10-05T02:35:18.921Z,101150.57
2022-10-05T02:38:14.001Z,101161.73
2022-10-05T02:41:01.065Z,101163.42
2022-10-05T02:43:48.706Z,101163.10
2022-10-05T02:46:20.233Z,101160.29
2022-10-05T02:48:57.173Z,101171.34
2022-10-05T02:51:48.727Z,101186.61
2022-10-05T02:55:02.282Z,101183.10
2022-10-05T02:57:33.391Z,101173.86
2022-10-05T03:00:13.395Z,101167.11
2022-10-05T03:02:53.179Z,101178.29
2022-10-05T03:05:32.103Z,101192.42
2022-10-05T03:08:09.828Z,101192.09
2022-10-05T03:10:46.783Z,101188.64
2022-10-05T03:13:33.455Z,101187.42
2022-10-05T03:16:10.176Z,101190.30
2022-10-05T03:18:44.388Z,101188.97
2022-10-05T03:21:30.529Z,101185.35
2022-10-05T03:24:08.326Z,101187.80
2022-10-05T03:26:49.300Z,101189.36
2022-10-05T03:29:47.277Z,101195.13
2022-10-05T03:32:30.623Z,101193.17
2022-10-05T03:35:13.505Z,101185.50
2022-10-05T03:38:00.585Z,101196.90
2022-10-05T03:41:05.196Z,101193.20
2022-10-05T03:44:02.648Z,101183.67
2022-10-05T03:46:55.783Z,101176.06
2022-10-05T03:49:33.280Z,101165.34
2022-10-05T03:52:17.857Z,101159.70
2022-10-05T03:54:51.467Z,101161.62
2022-10-05T03:57:29.394Z,101163.34
2022-10-05T04:00:07.058Z,101162.95
2022-10-05T04:03:11.516Z,101163.83
2022-10-05T04:05:48.892Z,101155.52
2022-10-05T04:08:34.958Z,101151.13
2022-10-05T04:11:21.692Z,101149.08
2022-10-05T04:13:56.722Z,101146.67
2022-10-05T04:16:34.856Z,101150.05
2022-10-05T04:19:19.450Z,101152.15
2022-10-05T04:22:20.476Z,101153.00
2022-10-05T04:25:17.223Z,101158.40
2022-10-05T04:27:57.434Z,101158.48
2022-10-05T04:30:25.886Z,101163.98
2022-10-05T04:32:58.784Z,101170.80
2022-10-05T04:36:03.912Z,101175.52
2022-10-05T04:39:16.298Z,101176.70
2022-10-05T04:42:04.623Z,101180.20
2022-10-05T04:44:47.896Z,101177.22
2022-10-05T04:47:25.284Z,101179.39
2022-10-05T04:50:16.438Z,101177.80
2022-10-05T04:53:19.725Z,101169.57
2022-10-05T04:56:00.604Z,101169.56
2022-10-05T04:58:36.771Z,101175.44
2022-10-05T05:01:38.044Z,101183.35
2022-10-05T05:04:41.654Z,101191.71
2022-10-05T05:07:29.212Z,101189.60
2022-10-05T05:10:03.301Z,101187.42
2022-10-05T05:12:50.298Z,101196.45
2022-10-05T05:15:47.270Z,101199.05
2022-10-05T05:18:37.513Z,101200.21
2022-10-05T05:21:41.068Z,101200.99
2022-10-05T05:24:25.250Z,101197.23
2022-10-05T05:27:23.119Z,101193.81
2022-10-05T05:30:16.191Z,101173.61
2022-10-05T05:33:01.614Z,101187.48
2022-10-05T05:36:07.890Z,101180.51
2022-10-05T05:38:43.128Z,101189.15
2022-10-05T05:41:25.052Z,101185.83
2022-10-05T05:44:11.721Z,101185.71
2022-10-05T05:47:22.222Z,101181.55
2022-10-05T05:50:15.356Z,101179.12
2022-10-05T05:52:47.155Z,101186.92
2022-10-05T05:55:52.086Z,101187.67
2022-10-05T05:58:29.339Z,101195.63
2022-10-05T06:01:33.693Z,101192.48
2022-10-05T06:04:09.412Z,101188.64
2022-10-05T06:06:43.032Z,101193.79
2022-10-05T06:09:38.214Z,101176.29
2022-10-05T06:12:40.923Z,101188.05
2022-10-05T06:15:54.316Z,101188.45
2022-10-05T06:18:24.105Z,101190.38
2022-10-05T06:21:06.999Z,101159.36
2022-10-05T06:24:10.414Z,101164.80
2022-10-05T06:27:02.444Z,101165.58
2022-10-05T06:29:59.121Z,101171.81
2022-10-05T06:32:36.032Z,101168.74
2022-10-05T06:35:07.375Z,101163.90
2022-10-05T06:38:01.601Z,101161.17
2022-10-05T06:40:51.149Z,101171.09
2022-10-05T06:43:30.915Z,101173.39
2022-10-05T06:46:49.511Z,101177.05
2022-10-05T06:49:51.988Z,101175.41
2022-10-05T06:53:09.178Z,101188.56
2022-10-05T06:55:51.871Z,101193.80
2022-10-05T06:58:51.005Z,101194.98
2022-10-05T07:01:20.837Z,101199.29
2022-10-05T07:03:55.800Z,101201.23
2022-10-05T07:06:29.741Z,101197.67
2022-10-05T07:09:31.329Z,101190.42
2022-10-05T07:12:12.343Z,101179.93
2022-10-05T07:15:03.924Z,101183.20
2022-10-05T07:17:59.173Z,101183.28
2022-10-05T07:21:05.049Z,101180.56
2022-10-05T07:23:44.797Z,101180.14
2022-10-05T07:26:20.808Z,101176.69
2022-10-05T07:29:10.825Z,101182.10
2022-10-05T07:31:39.248Z,101180.48
2022-10-05T07:34:15.481Z,101178.85
2022-10-05T07:37:29.090Z,101170.46
2022-10-05T07:40:09.949Z,101171.39
2022-10-05T07:42:56.673Z,101165.08
2022-10-05T07:45:31.101Z,101167.98
2022-10-05T07:48:13.172Z,101166.16
2022-10-05T07:51:00.032Z,101162.91
2022-10-05T07:53:43.296Z,101161.64
2022-10-05T07:56:28.015Z,101161.90
2022-10-05T07:59:03.321Z,101157.50
2022-10-05T08:01:43.215Z,101159.13
2022-10-05T08:04:40.726Z,101153.84
2022-10-05T08:07:16.001Z,101155.00
2022-10-05T08:09:52.979Z,101149.86
2022-10-05T08:12:41.543Z,101147.51
2022-10-05T08:15:16.724Z,101148.02
2022-10-05T08:18:02.547Z,101142.47
2022-10-05T08:20:39.005Z,101139.58
2022-10-05T08:23:38.909Z,101134.41
2022-10-05T08:26:13.929Z,101132.17
2022-10-05T08:28:52.512Z,101130.95
2022-10-05T08:31:25.356Z,101128.83
2022-10-05T08:34:22.266Z,101124.29
2022-10-05T08:37:02.777Z,101126.23
2022-10-05T08:40:13.046Z,101129.09
2022-10-05T08:42:44.407Z,101134.21
2022-10-05T08:45:34.280Z,101136.38
2022-10-05T08:48:14.323Z,101139.14
2022-10-05T08:51:13.686Z,101135.45
2022-10-05T08:53:56.888Z,101134.80
2022-10-05T08:56:42.039Z,101135.13
2022-10-05T08:59:37.860Z,101116.51
2022-10-05T09:02:13.181Z,101124.67
2022-10-05T09:05:11.567Z,101125.67
2022-10-05T09:08:15.048Z,101120.08
2022-10-05T09:10:54.934Z,101119.80
2022-10-05T09:13:47.902Z,101117.92
2022-10-05T09:16:37.523Z,101111.59
2022-10-05T09:19:06.441Z,101112.05
2022-10-05T09:21:57.720Z,101100.69
2022-10-05T09:24:49.025Z,101098.58
2022-10-05T09:27:19.092Z,101091.52
2022-10-05T09:30:02.694Z,101091.22
2022-10-05T09:33:08.807Z,101088.98
2022-10-05T09:36:00.619Z,101088.10
2022-10-05T09:38:54.006Z,101086.58
2022-10-05T09:41:44.279Z,101081.05
2022-10-05T09:44:41.695Z,101084.98
2022-10-05T09:47:47.187Z,101093.20
2022-10-05T09:50:38.239Z,101084.20
2022-10-05T09:53:18.226Z,101102.11
2022-10-05T09:55:57.960Z,101097.58
2022-10-05T09:58:42.629Z,101098.92
2022-10-05T10:01:34.055Z,101099.58
2022-10-05T10:04:35.912Z,101106.62
2022-10-05T10:07:41.452Z,101111.86
2022-10-05T10:10:31.856Z,101116.45
2022-10-05T10:13:39.472Z,101114.98
2022-10-05T10:16:16.936Z,101110.53
2022-10-05T10:19:32.447Z,101107.15
2022-10-05T10:22:27.484Z,101114.22
2022-10-05T10:25:06.025Z,101126.67
2022-10-05T10:27:54.350Z,101120.50
2022-10-05T10:30:52.051Z,101117.35
2022-10-05T10:33:57.138Z,101101.65
2022-10-05T10:36:40.241Z,101108.79
2022-10-05T10:39:29.640Z,101100.77
2022-10-05T10:42:35.474Z,101087.11
2022-10-05T10:45:28.803Z,101079.68
2022-10-05T10:48:05.368Z,101074.60
2022-10-05T10:50:49.728Z,101071.86
2022-10-05T10:53:32.971Z,101059.71
2022-10-05T10:56:14.245Z,101057.88
2022-10-05T10:58:57.386Z,101055.77
2022-10-05T11:01:29.776Z,101054.63
2022-10-05T11:04:19.134Z,101055.79
2022-10-05T11:07:06.135Z,101053.50
2022-10-05T11:10:01.041Z,101045.73
2022-10-05T11:13:01.186Z,101042.70
2022-10-05T11:16:04.101Z,101046.44
2022-10-05T11:18:51.262Z,101043.08
2022-10-05T11:22:17.267Z,101048.83
2022-10-05T11:25:15.682Z,101054.12
2022-10-05T11:28:20.037Z,101059.96
2022-10-05T11:30:54.371Z,101059.14
2022-10-05T11:33:44.285Z,101053.94
2022-10-05T11:36:21.620Z,101047.02
2022-10-05T11:39:22.648Z,101041.79
2022-10-05T11:42:09.321Z,101038.82
2022-10-05T11:45:00.190Z,101039.64
2022-10-05T11:47:33.423Z,101043.16
2022-10-05T11:50:17.487Z,101044.32
2022-10-05T11:53:22.997Z,101047.67
2022-10-05T11:56:22.085Z,101044.20
2022-10-05T11:59:15.059Z,101040.71
2022-10-05T12:02:08.307Z,101037.16
2022-10-05T12:04:40.621Z,101035.75
2022-10-05T12:07:20.896Z,101036.25
2022-10-05T12:10:17.102Z,101040.05
2022-10-05T12:12:45.390Z,101038.54
2022-10-05T12:15:27.147Z,101036.77
2022-10-05T12:18:01.166Z,101037.70
2022-10-05T12:20:40.905Z,101040.36
2022-10-05T12:23:30.904Z,101036.20
2022-10-05T12:26:04.468Z,101035.41
2022-10-05T12:28:42.275Z,101029.02
2022-10-05T12:31:19.541Z,101026.31
2022-10-05T12:34:15.724Z,101026.70
2022-10-05T12:37:08.210Z,101026.67
2022-10-05T12:39:46.546Z,101029.35
2022-10-05T12:42:30.704Z,101031.92
2022-10-05T12:45:16.732Z,101030.71
2022-10-05T12:48:12.774Z,101032.56
2022-10-05T12:50:57.719Z,101030.88
2022-10-05T12:53:37.267Z,101014.52
2022-10-05T12:56:26.682Z,101026.23
2022-10-05T12:59:22.541Z,101028.23
2022-10-05T13:01:59.631Z,101031.25
2022-10-05T13:04:52.145Z,101031.59
2022-10-05T13:07:38.939Z,101028.40
2022-10-05T13:10:07.552Z,101020.70
2022-10-05T13:12:58.191Z,101014.80
2022-10-05T13:15:30.994Z,101012.02
2022-10-05T13:18:20.190Z,101011.42
2022-10-05T13:21:12.198Z,101015.54
2022-10-05T13:24:14.806Z,101014.70
2022-10-05T13:26:49.884Z,101019.27
2022-10-05T13:29:35.064Z,101016.33
2022-10-05T13:32:12.759Z,101011.90
2022-10-05T13:35:11.267Z,101011.92
2022-10-05T13:37:53.095Z,101013.60
2022-10-05T13:40:25.076Z,101009.17
2022-10-05T13:43:04.238Z,101009.38
2022-10-05T13:46:07.333Z,101016.73
2022-10-05T13:49:01.632Z,101023.47
2022-10-05T13:52:08.964Z,101027.44
2022-10-05T13:54:42.137Z,101026.77
2022-10-05T13:57:28.631Z,101022.96
2022-10-05T14:00:27.017Z,101020.41
2022-10-05T14:02:58.003Z,100997.60
2022-10-05T14:05:27.824Z,101008.70
2022-10-05T14:08:02.854Z,101002.24
2022-10-05T14:10:37.603Z,101000.10
2022-10-05T14:13:21.010Z,100997.17
2022-10-05T14:16:13.839Z,100996.81
2022-10-05T14:19:04.070Z,100992.65
2022-10-05T14:21:43.345Z,100982.61
2022-10-05T14:24:47.557Z,100992.65
2022-10-05T14:27:31.242Z,100981.02
2022-10-05T14:30:18.561Z,100981.30
2022-10-05T14:33:12.966Z,100982.22
2022-10-05T14:35:50.847Z,100981.17
2022-10-05T14:38:21.534Z,100970.66
2022-10-05T14:41:06.550Z,100979.99
2022-10-05T14:43:35.498Z,100983.68
2022-10-05T14:46:23.225Z,100982.00
2022-10-05T14:49:23.177Z,100978.92
2022-10-05T14:51:53.905Z,100977.35
2022-10-05T14:54:24.075Z,100976.90
2022-10-05T14:56:58.575Z,100983.56
2022-10-05T15:00:00.513Z,100982.80
2022-10-05T15:02:32.224Z,100977.13
2022-10-05T15:05:17.562Z,100976.38
2022-10-05T15:07:50.336Z,100974.67
2022-10-05T15:10:33.413Z,100973.34
2022-10-05T15:13:22.637Z,100972.17
2022-10-05T15:15:55.435Z,100972.46
2022-10-05T15:18:49.094Z,100968.09
2022-10-05T15:21:32.424Z,100955.86
2022-10-05T15:24:05.666Z,100963.16
2022-10-05T15:26:47.505Z,100962.34
2022-10-05T15:29:18.876Z,100962.23
2022-10-05T15:32:14.868Z,100956.78
2022-10-05T15:34:56.791Z,100955.63
2022-10-05T15:37:33.232Z,100954.41
2022-10-05T15:40:14.873Z,100949.54
2022-10-05T15:42:43.914Z,100945.00
2022-10-05T15:45:24.136Z,100941.33
2022-10-05T15:48:20.301Z,100941.84
2022-10-05T15:50:57.514Z,100944.02
2022-10-05T15:53:46.081Z,100939.56
2022-10-05T15:56:30.225Z,100909.63
2022-10-05T15:59:19.039Z,100941.00
2022-10-05T16:01:56.847Z,100956.81
2022-10-05T16:05:07.810Z,100953.80
2022-10-05T16:08:04.682Z,100951.48
2022-10-05T16:10:37.157Z,100952.94
2022-10-05T16:13:28.897Z,100945.95
2022-10-05T16:16:21.080Z,100929.77
2022-10-05T16:19:03.167Z,100924.98
2022-10-05T16:22:16.640Z,100936.87
2022-10-05T16:25:05.921Z,100938.77
2022-10-05T16:27:43.055Z,100921.75
2022-10-05T16:30:16.807Z,100917.21
2022-10-05T16:33:03.469Z,100922.58
2022-10-05T16:36:03.365Z,100916.16
2022-10-05T16:38:47.083Z,100916.67
2022-10-05T16:41:47.751Z,100855.24
2022-10-05T16:44:34.076Z,100913.52
2022-10-05T16:47:40.715Z,100909.68
2022-10-05T16:50:15.642Z,100909.88
2022-10-05T16:52:47.135Z,100911.64
2022-10-05T16:55:26.321Z,100908.42
2022-10-05T16:57:57.128Z,100909.85
2022-10-05T17:00:40.224Z,100912.63
2022-10-05T17:03:21.598Z,100911.77
2022-10-05T17:06:20.611Z,100918.45
2022-10-05T17:09:10.396Z,100919.02
2022-10-05T17:11:57.217Z,100915.48
2022-10-05T17:14:40.862Z,100888.52
2022-10-05T17:17:31.744Z,100905.95
2022-10-05T17:20:18.846Z,100913.80
2022-10-05T17:22:59.667Z,100911.88
2022-10-05T17:25:54.398Z,100913.89
2022-10-05T17:28:37.447Z,100914.34
2022-10-05T17:31:13.930Z,100915.17
2022-10-05T17:34:00.146Z,100913.23
2022-10-05T17:36:49.915Z,100906.60
2022-10-05T17:39:43.955Z,100903.72
2022-10-05T17:42:30.084Z,100901.77
2022-10-05T17:45:02.574Z,100902.02
2022-10-05T17:47:55.507Z,100902.84
2022-10-05T17:51:05.337Z,100902.05
2022-10-05T17:54:01.530Z,100904.05
2022-10-05T17:56:34.023Z,100901.60
2022-10-05T17:59:09.403Z,100894.81
2022-10-05T18:01:40.856Z,100898.17
2022-10-05T18:04:12.067Z,100886.08
2022-10-05T18:06:52.791Z,100895.73
2022-10-05T18:09:24.856Z,100890.95
2022-10-05T18:11:55.797Z,100887.92
2022-10-05T18:14:25.133Z,100890.33
2022-10-05T18:17:10.151Z,100888.18
2022-10-05T18:19:39.702Z,100890.17
2022-10-05T18:22:15.726Z,100888.58
2022-10-05T18:24:53.280Z,100888.83
2022-10-05T18:27:40.022Z,100888.73
2022-10-05T18:30:23.360Z,100886.95
2022-10-05T18:32:54.593Z,100883.73
2022-10-05T18:35:48.183Z,100876.96
2022-10-05T18:38:43.849Z,100884.08
2022-10-05T18:41:36.281Z,100871.17
2022-10-05T18:44:18.810Z,100883.62
2022-10-05T18:47:23.903Z,100887.98
2022-10-05T18:50:16.963Z,100889.34
2022-10-05T18:53:04.663Z,100887.16
2022-10-05T18:55:42.851Z,100881.23
2022-10-05T18:58:19.246Z,100883.42
2022-10-05T19:01:23.505Z,100885.61
2022-10-05T19:04:27.285Z,100863.80
2022-10-05T19:07:27.965Z,100880.24
2022-10-05T19:10:18.695Z,100871.11
2022-10-05T19:12:55.076Z,100873.41
2022-10-05T19:15:50.848Z,100876.98
2022-10-05T19:18:42.623Z,100876.27
2022-10-05T19:21:48.515Z,100877.17
2022-10-05T19:24:32.594Z,100878.09
2022-10-05T19:27:26.580Z,100876.38
2022-10-05T19:30:23.149Z,100878.61
2022-10-05T19:32:57.304Z,100877.83
2022-10-05T19:35:42.681Z,100874.87
2022-10-05T19:38:32.915Z,100872.89
2022-10-05T19:41:30.180Z,100876.80
2022-10-05T19:44:27.575Z,100872.94
2022-10-05T19:47:15.193Z,100874.54
2022-10-05T19:49:58.764Z,100874.14
2022-10-05T19:52:31.257Z,100876.07
2022-10-05T19:55:14.145Z,100879.37
2022-10-05T19:57:54.018Z,100881.64
2022-10-05T20:00:26.869Z,100881.59
2022-10-05T20:03:12.141Z,100882.48
2022-10-05T20:05:41.161Z,100884.42
2022-10-05T20:08:17.726Z,100884.64
2022-10-05T20:11:19.493Z,100886.95
2022-10-05T20:14:10.226Z,100889.83
2022-10-05T20:16:57.189Z,100890.69
2022-10-05T20:19:50.065Z,100895.23
2022-10-05T20:22:25.257Z,100896.75
2022-10-05T20:24:56.468Z,100899.52
2022-10-05T20:27:52.165Z,100900.28
2022-10-05T20:30:25.815Z,100902.81
2022-10-05T20:32:59.674Z,100907.82
2022-10-05T20:35:30.957Z,100906.27
2022-10-05T20:38:12.303Z,100912.44
2022-10-05T20:40:40.380Z,100911.33
2022-10-05T20:43:30.372Z,100906.11
2022-10-05T20:45:58.454Z,100907.48
2022-10-05T20:48:30.059Z,100910.05
2022-10-05T20:51:01.872Z,100909.41
2022-10-05T20:53:29.963Z,100910.48
2022-10-05T20:56:02.746Z,100909.82
2022-10-05T20:58:31.175Z,100914.52
2022-10-05T21:01:18.251Z,100915.11
2022-10-05T21:03:46.859Z,100916.50
2022-10-05T21:06:15.861Z,100919.63
2022-10-05T21:08:46.624Z,100920.70
2022-10-05T21:11:14.706Z,100925.57
2022-10-05T21:13:44.939Z,100925.50
2022-10-05T21:16:19.039Z,100925.46
2022-10-05T21:18:48.896Z,100924.45
2022-10-05T21:21:17.914Z,100925.05
2022-10-05T21:23:47.631Z,100928.42
2022-10-05T21:26:16.126Z,100931.43
2022-10-05T21:28:44.780Z,100931.10
2022-10-05T21:31:13.259Z,100932.64
2022-10-05T21:33:41.666Z,100932.55
2022-10-05T21:36:10.009Z,100923.17
2022-10-05T21:38:38.913Z,100937.88
2022-10-05T21:41:15.642Z,100936.34
2022-10-05T21:43:44.234Z,100938.38
2022-10-05T21:46:16.767Z,100941.83
2022-10-05T21:48:45.008Z,100941.75
2022-10-05T21:51:19.085Z,100938.98
2022-10-05T21:53:52.364Z,100943.73
2022-10-05T21:56:23.708Z,100946.06
2022-10-05T21:58:52.663Z,100952.27
2022-10-05T22:01:22.878Z,100934.86
2022-10-05T22:03:57.074Z,100947.16
2022-10-05T22:06:25.277Z,100947.64
2022-10-05T22:08:53.147Z,100945.13
2022-10-05T22:11:21.047Z,100949.67
2022-10-05T22:13:51.651Z,100945.86
2022-10-05T22:16:22.495Z,100947.19
2022-10-05T22:18:50.967Z,100945.31
2022-10-05T22:21:21.205Z,100946.63
2022-10-05T22:23:49.491Z,100950.74
2022-10-05T22:26:21.294Z,100945.50
2022-10-05T22:28:52.617Z,100943.45
2022-10-05T22:31:20.858Z,100946.95
2022-10-05T22:33:48.814Z,100944.73
2022-10-05T22:36:16.916Z,100934.98
2022-10-05T22:38:46.690Z,100946.42
2022-10-05T22:41:18.455Z,100950.52
2022-10-05T22:43:50.961Z,100945.43
2022-10-05T22:46:20.497Z,100948.17
2022-10-05T22:48:48.444Z,100948.48
2022-10-05T22:51:16.559Z,100948.35
2022-10-05T22:53:44.633Z,100952.27
2022-10-05T22:56:13.984Z,100952.53
2022-10-05T22:58:43.224Z,100953.49
2022-10-05T23:01:14.341Z,100949.69
2022-10-05T23:03:43.020Z,100956.75
2022-10-05T23:06:19.482Z,100954.08
2022-10-05T23:08:48.108Z,100958.45
2022-10-05T23:11:25.991Z,100960.09
2022-10-05T23:13:58.801Z,100961.96
2022-10-05T23:16:29.274Z,100965.30
2022-10-05T23:18:57.862Z,100967.96
2022-10-05T23:21:29.324Z,100972.85
2022-10-05T23:23:57.276Z,100969.95
2022-10-05T23:26:26.494Z,100974.04
2022-10-05T23:28:54.375Z,100977.88
2022-10-05T23:31:29.359Z,100978.88
2022-10-05T23:33:57.875Z,100981.13
2022-10-05T23:36:31.569Z,100978.16
2022-10-05T23:39:00.243Z,100974.80
2022-10-05T23:41:28.261Z,100972.52
2022-10-05T23:43:56.255Z,100975.36
2022-10-05T23:46:24.524Z,100974.45
2022-10-05T23:48:53.380Z,100975.11
2022-10-05T23:51:21.534Z,100977.69
2022-10-05T23:53:49.570Z,100974.06
2022-10-05T23:56:17.639Z,100978.11
2022-10-05T23:58:45.665Z,100971.03
